createdAt,value
2018-09-30T00:01:29.733Z,7.95
2018-09-30T00:03:30.365Z,10.46
2018-09-30T00:07:30.792Z,10.08
2018-09-30T00:13:31.320Z,8.64
2018-09-30T00:17:31.876Z,8.72
2018-09-30T00:23:32.455Z,8.7
2018-09-30T00:29:32.933Z,9.27
2018-09-30T00:33:33.467Z,9.07
2018-09-30T00:39:33.981Z,8.1
2018-09-30T00:43:34.464Z,10.09
2018-09-30T00:49:34.983Z,9.11
2018-09-30T00:55:35.603Z,9.98
2018-09-30T00:59:36.149Z,8.78
2018-09-30T01:05:36.716Z,8.99
2018-09-30T01:09:37.225Z,8.62
2018-09-30T01:11:37.666Z,8.11
2018-09-30T01:15:38.208Z,9.34
2018-09-30T01:21:38.711Z,8.65
2018-09-30T01:25:39.318Z,9.92
2018-09-30T01:31:39.886Z,7.97
2018-09-30T01:35:40.420Z,9.99
2018-09-30T01:37:40.906Z,7.15
2018-09-30T01:41:41.539Z,7.72
2018-09-30T01:47:42.053Z,6.05
2018-09-30T01:51:42.616Z,8.64
2018-09-30T01:57:43.141Z,8.63
2018-09-30T02:01:43.626Z,8.07
2018-09-30T02:03:44.094Z,8.24
2018-09-30T02:07:44.646Z,8.37
2018-09-30T02:13:45.286Z,8.77
2018-09-30T02:17:45.788Z,8.63
2018-09-30T02:23:46.410Z,8.27
2018-09-30T02:29:46.929Z,6.98
2018-09-30T02:33:47.462Z,9
2018-09-30T02:39:48.056Z,7.33
2018-09-30T02:43:48.545Z,8.82
2018-09-30T02:49:49.051Z,7.55
2018-09-30T02:55:49.633Z,7.21
2018-09-30T02:59:50.132Z,10.98
2018-09-30T03:05:50.676Z,7.85
2018-09-30T03:09:51.183Z,8.68
2018-09-30T03:11:51.628Z,8.24
2018-09-30T03:15:52.511Z,11.01
2018-09-30T03:21:53.034Z,6.56
2018-09-30T03:25:53.529Z,8.79
2018-09-30T03:31:54.105Z,6.22
2018-09-30T03:35:54.603Z,8.7
2018-09-30T03:37:55.099Z,7.65
2018-09-30T03:41:55.614Z,7.76
2018-09-30T03:47:56.145Z,8.7
2018-09-30T03:51:56.840Z,8.13
2018-09-30T03:57:57.398Z,6.1
2018-09-30T04:01:57.934Z,7.36
2018-09-30T04:03:58.362Z,8.46
2018-09-30T04:07:59.090Z,8.21
2018-09-30T04:13:59.624Z,6.99
2018-09-30T04:18:00.200Z,8.72
2018-09-30T04:24:00.631Z,6.94
2018-09-30T04:30:01.217Z,8.28
2018-09-30T04:34:01.681Z,8.66
2018-09-30T04:40:02.213Z,8.04
2018-09-30T04:44:02.646Z,9.44
2018-09-30T04:50:03.147Z,7.76
2018-09-30T04:56:03.734Z,7.55
2018-09-30T05:00:04.341Z,7.6
2018-09-30T05:06:04.944Z,9.42
2018-09-30T05:10:05.423Z,7.86
2018-09-30T05:12:05.884Z,7.95
2018-09-30T05:16:06.559Z,8.71
2018-09-30T05:22:07.011Z,9.7
2018-09-30T05:26:07.523Z,8.25
2018-09-30T05:32:08.095Z,8.78
2018-09-30T05:36:08.575Z,9.05
2018-09-30T05:38:09.097Z,9.81
2018-09-30T05:42:09.557Z,14.95
2018-09-30T05:48:10.130Z,18.52
2018-09-30T05:52:10.713Z,19.94
2018-09-30T05:58:11.295Z,14.62
2018-09-30T06:02:11.801Z,14.44
2018-09-30T06:04:12.242Z,11.43
2018-09-30T06:08:12.725Z,13.81
2018-09-30T06:14:13.444Z,20.49
2018-09-30T06:18:13.872Z,23.65
2018-09-30T06:24:14.391Z,24.58
2018-09-30T06:30:15.616Z,31.05
2018-09-30T06:34:16.331Z,32.9
2018-09-30T06:40:16.921Z,31.72
2018-09-30T06:44:17.479Z,40.66
2018-09-30T06:50:18.100Z,28.96
2018-09-30T06:56:18.722Z,19.26
2018-09-30T07:00:19.196Z,19.21
2018-09-30T07:06:19.755Z,16.51
2018-09-30T07:10:20.429Z,12.35
2018-09-30T07:12:21.000Z,12.66
2018-09-30T07:16:21.517Z,13.28
2018-09-30T07:22:22.191Z,9.39
2018-09-30T07:26:22.600Z,8.63
2018-09-30T07:32:23.114Z,11.57
2018-09-30T07:36:23.650Z,10.12
2018-09-30T07:38:24.109Z,14.16
2018-09-30T07:42:24.705Z,22.24
2018-09-30T07:48:25.285Z,20.03
2018-09-30T07:52:25.789Z,19.95
2018-09-30T07:58:26.694Z,12.13
2018-09-30T08:02:27.161Z,10.76
2018-09-30T08:04:27.565Z,10.07
2018-09-30T08:08:28.309Z,8.86
2018-09-30T08:14:28.812Z,6.31
2018-09-30T08:18:29.392Z,6.43
2018-09-30T08:24:30.003Z,7.31
2018-09-30T08:30:30.355Z,5.87
2018-09-30T08:34:30.907Z,5.14
2018-09-30T08:40:31.365Z,6.16
2018-09-30T08:44:31.900Z,7.01
2018-09-30T08:50:32.400Z,6.17
2018-09-30T08:56:32.954Z,6.16
2018-09-30T09:00:33.479Z,5.87
2018-09-30T09:06:34.105Z,5.66
2018-09-30T09:10:34.717Z,6.74
2018-09-30T09:12:35.181Z,6.13
2018-09-30T09:16:35.793Z,5.11
2018-09-30T09:22:36.897Z,5.89
2018-09-30T09:26:37.437Z,6.23
2018-09-30T09:32:37.964Z,5.77
2018-09-30T09:36:38.488Z,6.58
2018-09-30T09:38:39.064Z,5.91
2018-09-30T09:42:39.601Z,4.41
2018-09-30T09:48:40.236Z,4.43
2018-09-30T09:52:40.803Z,5.54
2018-09-30T09:58:41.290Z,5.05
2018-09-30T10:02:41.854Z,5.26
2018-09-30T10:04:42.369Z,4.85
2018-09-30T10:08:42.859Z,4.66
2018-09-30T10:14:43.417Z,4.83
2018-09-30T10:18:43.963Z,3.93
2018-09-30T10:24:44.448Z,4.78
2018-09-30T10:30:45.023Z,6.2
2018-09-30T10:34:45.554Z,5.01
2018-09-30T10:40:46.347Z,5.4
2018-09-30T10:44:46.963Z,5.29
2018-09-30T10:50:47.434Z,7.07
2018-09-30T10:56:48.078Z,6.33
2018-09-30T11:00:48.646Z,5.96
2018-09-30T11:06:49.329Z,6.5
2018-09-30T11:10:49.898Z,5.65
2018-09-30T11:12:50.410Z,6.03
2018-09-30T11:16:50.858Z,6.3
2018-09-30T11:22:51.383Z,5.24
2018-09-30T11:26:52.014Z,5.63
2018-09-30T11:32:52.542Z,7.64
2018-09-30T11:36:53.133Z,8.09
2018-09-30T11:38:53.697Z,6.7
2018-09-30T11:42:54.209Z,6.61
2018-09-30T11:48:54.803Z,5.29
2018-09-30T11:52:55.314Z,6.29
2018-09-30T11:58:55.874Z,5.53
2018-09-30T12:04:56.522Z,5.74
2018-09-30T12:08:57.181Z,5.74
2018-09-30T12:14:57.737Z,6.52
2018-09-30T12:18:58.308Z,6.05
2018-09-30T12:24:58.779Z,5.68
2018-09-30T12:30:59.320Z,6.69
2018-09-30T12:34:59.800Z,6.09
2018-09-30T12:41:00.307Z,6.08
2018-09-30T12:45:00.831Z,6.22
2018-09-30T12:47:01.330Z,5.15
2018-09-30T12:51:01.794Z,5.14
2018-09-30T12:57:02.336Z,5.86
2018-09-30T13:01:02.882Z,5.82
2018-09-30T13:07:03.424Z,5.36
2018-09-30T13:11:03.938Z,5.23
2018-09-30T13:13:04.380Z,4.66
2018-09-30T13:17:04.939Z,5.29
2018-09-30T13:23:05.380Z,10.48
2018-09-30T13:27:05.900Z,7.07
2018-09-30T13:33:06.546Z,4.69
2018-09-30T13:39:07.143Z,5.42
2018-09-30T13:43:07.686Z,6.17
2018-09-30T13:49:08.215Z,5.1
2018-09-30T13:53:08.747Z,5.61
2018-09-30T13:59:09.232Z,7.5
2018-09-30T14:05:09.789Z,5.83
2018-09-30T14:09:10.289Z,5.11
2018-09-30T14:15:11.165Z,5.58
2018-09-30T14:19:11.658Z,5.56
2018-09-30T14:21:12.234Z,5.46
2018-09-30T14:25:12.674Z,5.5
2018-09-30T14:31:13.165Z,6.15
2018-09-30T14:35:13.702Z,7.1
2018-09-30T14:41:14.257Z,6.24
2018-09-30T14:45:15.229Z,6.85
2018-09-30T14:47:15.701Z,5.4
2018-09-30T14:51:16.212Z,6.14
2018-09-30T14:57:16.696Z,5.55
2018-09-30T15:01:17.251Z,6.34
2018-09-30T15:07:17.810Z,5.81
2018-09-30T15:13:18.352Z,6.75
2018-09-30T15:17:18.927Z,6.42
2018-09-30T15:23:19.367Z,8.14
2018-09-30T15:27:19.847Z,6.88
2018-09-30T15:33:20.450Z,5.7
2018-09-30T15:39:21.038Z,5.83
2018-09-30T15:43:21.570Z,5.71
2018-09-30T15:49:22.120Z,6.24
2018-09-30T15:53:22.729Z,5.87
2018-09-30T15:55:23.253Z,4.7
2018-09-30T15:59:23.896Z,5.53
2018-09-30T16:05:24.542Z,6.79
2018-09-30T16:09:25.026Z,6.17
2018-09-30T16:15:25.494Z,6.23
2018-09-30T16:19:26.024Z,5.34
2018-09-30T16:21:26.752Z,6.31
2018-09-30T16:25:27.188Z,7.7
2018-09-30T16:31:27.928Z,6.36
2018-09-30T16:35:28.496Z,5.77
2018-09-30T16:41:29.073Z,7.41
2018-09-30T16:45:30.274Z,7.2
2018-09-30T16:47:30.751Z,6.2
2018-09-30T16:51:31.328Z,7.22
2018-09-30T16:57:31.910Z,6.76
2018-09-30T17:01:32.408Z,7.44
2018-09-30T17:07:32.973Z,10.43
2018-09-30T17:13:33.430Z,12.12
2018-09-30T17:17:33.996Z,11.31
2018-09-30T17:23:34.683Z,8.23
2018-09-30T17:27:35.081Z,9.23
2018-09-30T17:33:35.638Z,9.06
2018-09-30T17:39:36.232Z,8.63
2018-09-30T17:43:36.800Z,7.18
2018-09-30T17:49:37.425Z,7.54
2018-09-30T17:53:37.913Z,7.44
2018-09-30T17:55:38.483Z,7.93
2018-09-30T17:59:38.952Z,7.93
2018-09-30T18:05:39.658Z,9.51
2018-09-30T18:09:40.170Z,7.62
2018-09-30T18:15:40.696Z,7.8
2018-09-30T18:19:41.303Z,7.76
2018-09-30T18:21:41.806Z,10.22
2018-09-30T18:25:42.401Z,10.43
2018-09-30T18:31:42.951Z,8.05
2018-09-30T18:35:43.488Z,9.11
2018-09-30T18:41:44.055Z,10.34
2018-09-30T18:47:44.626Z,9.65
2018-09-30T18:51:45.036Z,10.52
2018-09-30T18:57:45.572Z,9.72
2018-09-30T19:01:46.052Z,11.4
2018-09-30T19:07:46.533Z,8.87
2018-09-30T19:13:47.187Z,9.31
2018-09-30T19:17:47.662Z,8.93
2018-09-30T19:23:48.279Z,8.57
2018-09-30T19:27:48.832Z,9.23
2018-09-30T19:29:49.380Z,9.16
2018-09-30T19:33:49.879Z,9.08
2018-09-30T19:39:50.464Z,10.4
2018-09-30T19:43:51.091Z,11.61
2018-09-30T19:49:51.700Z,9.03
2018-09-30T19:53:52.255Z,8.12
2018-09-30T19:55:52.748Z,8.6
2018-09-30T19:59:53.253Z,10.24
2018-09-30T20:05:53.822Z,8.96
2018-09-30T20:09:54.396Z,8.74
2018-09-30T20:15:54.951Z,8.89
2018-09-30T20:19:55.410Z,7.49
2018-09-30T20:21:55.852Z,8.02
2018-09-30T20:25:56.464Z,9.33
2018-09-30T20:31:57.044Z,9.88
2018-09-30T20:35:57.620Z,8.72
2018-09-30T20:41:58.160Z,8.34
2018-09-30T20:47:59.115Z,8.79
2018-09-30T20:51:59.576Z,10
2018-09-30T20:58:00.070Z,5.75
2018-09-30T21:02:00.783Z,6.63
2018-09-30T21:08:01.363Z,7.25
2018-09-30T21:14:01.900Z,6.97
2018-09-30T21:18:02.405Z,7.67
2018-09-30T21:24:03.038Z,6.79
2018-09-30T21:28:03.513Z,8.6
2018-09-30T21:30:03.979Z,8.79
2018-09-30T21:34:04.579Z,8.15
2018-09-30T21:40:05.165Z,9.28
2018-09-30T21:44:05.899Z,8.75
2018-09-30T21:50:06.621Z,8.91
2018-09-30T21:54:07.307Z,9.57
2018-09-30T21:56:07.787Z,12.52
2018-09-30T22:00:08.281Z,9.47
2018-09-30T22:06:08.991Z,11.58
2018-09-30T22:10:09.645Z,10.4
2018-09-30T22:16:10.852Z,9.55
2018-09-30T22:22:11.423Z,9.14
2018-09-30T22:26:12.307Z,10.25
2018-09-30T22:32:12.877Z,9
2018-09-30T22:36:13.458Z,10.64
2018-09-30T22:42:13.943Z,8.39
2018-09-30T22:48:14.533Z,7.2
2018-09-30T22:52:15.039Z,8.02
2018-09-30T22:58:15.587Z,7.39
2018-09-30T23:02:16.163Z,9.11
2018-09-30T23:08:16.860Z,8.23
2018-09-30T23:14:17.320Z,7.6
2018-09-30T23:18:17.841Z,7.36
2018-09-30T23:24:18.434Z,7.12
2018-09-30T23:28:19.001Z,8.5
2018-09-30T23:30:19.838Z,6.65
2018-09-30T23:34:20.386Z,6.89
2018-09-30T23:40:20.941Z,8.58
2018-09-30T23:44:21.547Z,9.56
2018-09-30T23:50:22.061Z,7.87
2018-09-30T23:54:22.635Z,9.54
2018-09-30T23:56:23.260Z,6.41
